• Join FlightAware (Why Join?)
  • Login
  • US Flag 
01:01AM EDT


 

Airport Tracker/Info


-or-


 

Live Flight TrackerFlight Track Log ✈ LBQ792 ✈ 08-May-2013 ✈ KIAG - KAGC

Flight Track Log - Related Links

Times and Time Zones

All times are in EDT time to prevent confusion due to time zone crossing. See the LBQ792 flight status page for this flight to view local times or setup timezone preferences in your user account.

Time Position Orientation Groundspeed Altitude Reporting Facility
EDT Latitude Longitude Course Direction KTS MPH feet Rate Location/Type
11:20PM 43.1000 -78.9000 180° South 139 160 2,500  Level Buffalo TRACON
11:21PM 43.0667 -78.9167 200° South 163 188 3,900 1,380 Climbing Buffalo TRACON
11:22PM 43.0092 -78.9308 190° South 173 199 5,400 1,440 Climbing Cleveland Center
11:23PM 42.9675 -78.9406 190° South 181 208 6,900 1,620 Climbing Cleveland Center
11:24PM 42.9156 -78.9503 188° South 176 203 8,700 1,440 Climbing Cleveland Center
11:25PM 42.8822 -78.9597 192° South 176 203 9,800 1,200 Climbing Cleveland Center
11:26PM 42.8283 -78.9694 188° South 176 203 11,100 1,260 Climbing Cleveland Center
11:27PM 42.7783 -78.9794 188° South 182 209 12,400 1,260 Climbing Cleveland Center
11:28PM 42.7244 -78.9919 190° South 187 215 13,700 1,200 Climbing Cleveland Center
11:29PM 42.6703 -79.0075 192° South 187 215 14,900 1,140 Climbing Cleveland Center
11:30PM 42.6122 -79.0231 191° South 198 228 16,000 1,020 Climbing Cleveland Center
11:31PM 42.5542 -79.0358 189° South 211 243 17,000 1,020 Climbing Cleveland Center
11:32PM 42.4917 -79.0486 189° South 222 255 18,100 1,140 Climbing Cleveland Center
11:33PM 42.4253 -79.0672 192° South 229 264 19,300 900 Climbing Cleveland Center
11:34PM 42.3650 -79.0908 196° South 229 264 20,000 300 Climbing Cleveland Center
11:35PM 42.2967 -79.1150 195° South 234 269 19,900  Descending Cleveland Center
11:36PM 42.2283 -79.1419 196° South 252 290 20,000  Climbing Cleveland Center
11:37PM 42.1556 -79.1658 194° South 264 304 20,000 -60 Level Cleveland Center
11:38PM 42.0828 -79.1900 194° South 269 310 19,900  Descending Cleveland Center
11:39PM 42.0081 -79.2167 195° South 274 315 20,000  Climbing Cleveland Center
11:40PM 41.9333 -79.2433 195° South 274 315 20,000  Level Cleveland Center
11:41PM 41.8692 -79.2669 195° South 279 321 20,000  Level Cleveland Center
11:42PM 41.7861 -79.2939 194° South 279 321 20,000  Level Cleveland Center
11:43PM 41.7194 -79.3175 195° South 279 321 20,000  Level Cleveland Center
11:44PM 41.6447 -79.3439 195° South 279 321 20,000  Level Cleveland Center
11:45PM 41.5700 -79.3703 195° South 279 321 20,000  Level Cleveland Center
11:46PM 41.4953 -79.3939 193° South 279 321 20,000  Level Cleveland Center
11:47PM 41.4225 -79.4200 195° South 279 321 20,000  Level Cleveland Center
11:48PM 41.3414 -79.4492 195° South 279 321 20,000 -60 Level Cleveland Center
11:49PM 41.2667 -79.4753 195° South 279 321 19,900 -840 Descending Cleveland Center
11:50PM 41.1878 -79.5044 196° South 279 321 18,400 -1,500 Descending Cleveland Center
11:51PM 41.1047 -79.5306 193° South 296 341 16,900 -1,500 Descending Cleveland Center
11:52PM 41.0214 -79.5567 193° South 303 349 15,400 -1,500 Descending Cleveland Center
11:53PM 40.9383 -79.5853 195° South 308 354 14,000 -1,500 Descending Cleveland Center
11:54PM 40.8572 -79.6142 195° South 308 354 12,500 -1,500 Descending Cleveland Center
11:55PM 40.7803 -79.6397 194° South 303 349 11,000 -1,500 Descending Cleveland Center
11:56PM 40.7056 -79.6656 195° South 292 336 9,500 -1,620 Descending Cleveland Center
11:57PM 40.6328 -79.6911 195° South 281 323 7,800 -1,680 Descending Cleveland Center
11:58PM 40.5642 -79.7194 197° South 268 308 6,200 -1,680 Descending Cleveland Center
11:59PM 40.5019 -79.7667 210° Southwest 262 302 4,500 -1,740 Descending Cleveland Center
12:01AM 40.4394 -79.8361 201° Southwest  Level Estimated
12:08AM 40.3500 -79.9167 270° West  Level FlightAware Approximate
12:09AM 40.3544 -79.9302 270° West  Level Estimated
12:10AM 40.3544 -79.9302 270° West  Level Estimated
12:11AM 40.3544 -79.9302 270° West  Level Estimated